sensor_id;sensor_type;location;lat;lon;timestamp;temperature;humidity
31387;DHT22;69978;50.096;8.448;2023-09-19T00:01:28;17.30;99.90
31387;DHT22;69978;50.096;8.448;2023-09-19T00:03:56;17.30;99.90
31387;DHT22;69978;50.096;8.448;2023-09-19T00:06:23;17.30;99.90
31387;DHT22;69978;50.096;8.448;2023-09-19T00:08:52;17.30;99.90
31387;DHT22;69978;50.096;8.448;2023-09-19T00:11:17;17.40;99.90
31387;DHT22;69978;50.096;8.448;2023-09-19T00:13:43;17.50;99.90
31387;DHT22;69978;50.096;8.448;2023-09-19T00:16:10;17.50;99.90
31387;DHT22;69978;50.096;8.448;2023-09-19T00:18:37;17.40;99.90
31387;DHT22;69978;50.096;8.448;2023-09-19T00:21:03;17.40;99.90
31387;DHT22;69978;50.096;8.448;2023-09-19T00:23:32;17.60;99.90
31387;DHT22;69978;50.096;8.448;2023-09-19T00:25:59;17.50;99.90
31387;DHT22;69978;50.096;8.448;2023-09-19T00:28:26;17.40;99.90
31387;DHT22;69978;50.096;8.448;2023-09-19T00:30:51;17.50;99.90
31387;DHT22;69978;50.096;8.448;2023-09-19T00:33:18;17.40;99.90
31387;DHT22;69978;50.096;8.448;2023-09-19T00:35:54;17.40;99.90
31387;DHT22;69978;50.096;8.448;2023-09-19T00:38:21;17.40;99.90
31387;DHT22;69978;50.096;8.448;2023-09-19T00:40:48;17.40;99.90
31387;DHT22;69978;50.096;8.448;2023-09-19T00:43:15;17.40;99.90
31387;DHT22;69978;50.096;8.448;2023-09-19T00:45:43;17.40;99.90
31387;DHT22;69978;50.096;8.448;2023-09-19T00:48:09;17.40;99.90
31387;DHT22;69978;50.096;8.448;2023-09-19T00:50:36;17.50;99.90
31387;DHT22;69978;50.096;8.448;2023-09-19T00:53:02;17.50;99.90
31387;DHT22;69978;50.096;8.448;2023-09-19T00:55:36;17.40;99.90
31387;DHT22;69978;50.096;8.448;2023-09-19T00:58:10;17.50;99.90
31387;DHT22;69978;50.096;8.448;2023-09-19T01:00:36;17.40;99.90
31387;DHT22;69978;50.096;8.448;2023-09-19T01:03:02;17.40;99.90
31387;DHT22;69978;50.096;8.448;2023-09-19T01:05:27;17.40;99.90
31387;DHT22;69978;50.096;8.448;2023-09-19T01:07:53;17.40;99.90
31387;DHT22;69978;50.096;8.448;2023-09-19T01:10:20;17.30;99.90
31387;DHT22;69978;50.096;8.448;2023-09-19T01:18:40;17.20;99.90
31387;DHT22;69978;50.096;8.448;2023-09-19T01:21:33;17.20;99.90
31387;DHT22;69978;50.096;8.448;2023-09-19T01:32:01;17.30;99.90
31387;DHT22;69978;50.096;8.448;2023-09-19T01:34:43;17.40;99.90
31387;DHT22;69978;50.096;8.448;2023-09-19T01:37:11;17.40;99.90
31387;DHT22;69978;50.096;8.448;2023-09-19T01:39:36;17.30;99.90
31387;DHT22;69978;50.096;8.448;2023-09-19T01:42:06;17.30;99.90
31387;DHT22;69978;50.096;8.448;2023-09-19T01:47:14;17.20;99.90
31387;DHT22;69978;50.096;8.448;2023-09-19T01:52:30;17.20;99.90
31387;DHT22;69978;50.096;8.448;2023-09-19T01:55:05;17.30;99.90
31387;DHT22;69978;50.096;8.448;2023-09-19T02:00:26;17.20;99.90
31387;DHT22;69978;50.096;8.448;2023-09-19T02:02:56;17.20;99.90
31387;DHT22;69978;50.096;8.448;2023-09-19T02:05:24;17.20;99.90
31387;DHT22;69978;50.096;8.448;2023-09-19T02:07:51;17.20;99.90
31387;DHT22;69978;50.096;8.448;2023-09-19T02:10:16;17.20;99.90
31387;DHT22;69978;50.096;8.448;2023-09-19T02:12:42;17.20;99.90
31387;DHT22;69978;50.096;8.448;2023-09-19T02:15:08;17.20;99.90
31387;DHT22;69978;50.096;8.448;2023-09-19T02:17:34;17.20;99.90
31387;DHT22;69978;50.096;8.448;2023-09-19T02:20:00;17.10;99.90
31387;DHT22;69978;50.096;8.448;2023-09-19T02:22:26;17.10;99.90
31387;DHT22;69978;50.096;8.448;2023-09-19T02:24:52;17.00;99.90
31387;DHT22;69978;50.096;8.448;2023-09-19T02:27:19;17.00;99.90
31387;DHT22;69978;50.096;8.448;2023-09-19T02:29:44;17.00;99.90
31387;DHT22;69978;50.096;8.448;2023-09-19T02:32:10;16.90;99.90
31387;DHT22;69978;50.096;8.448;2023-09-19T02:34:36;16.90;99.90
31387;DHT22;69978;50.096;8.448;2023-09-19T02:37:07;16.90;99.90
31387;DHT22;69978;50.096;8.448;2023-09-19T02:39:36;16.80;99.90
31387;DHT22;69978;50.096;8.448;2023-09-19T02:42:02;16.80;99.90
31387;DHT22;69978;50.096;8.448;2023-09-19T02:44:29;16.70;99.90
31387;DHT22;69978;50.096;8.448;2023-09-19T02:46:55;16.80;99.90
31387;DHT22;69978;50.096;8.448;2023-09-19T02:49:22;16.70;99.90
31387;DHT22;69978;50.096;8.448;2023-09-19T02:51:49;16.70;99.90
31387;DHT22;69978;50.096;8.448;2023-09-19T02:54:14;16.70;99.90
31387;DHT22;69978;50.096;8.448;2023-09-19T02:56:41;16.60;99.90
31387;DHT22;69978;50.096;8.448;2023-09-19T02:59:07;16.60;99.90
31387;DHT22;69978;50.096;8.448;2023-09-19T03:01:35;16.50;99.90
31387;DHT22;69978;50.096;8.448;2023-09-19T03:04:03;16.40;99.90
31387;DHT22;69978;50.096;8.448;2023-09-19T03:06:28;16.40;99.90
31387;DHT22;69978;50.096;8.448;2023-09-19T03:08:56;16.30;99.90
31387;DHT22;69978;50.096;8.448;2023-09-19T03:11:22;16.20;99.90
31387;DHT22;69978;50.096;8.448;2023-09-19T03:13:54;16.30;99.90
31387;DHT22;69978;50.096;8.448;2023-09-19T03:16:20;16.20;99.90
31387;DHT22;69978;50.096;8.448;2023-09-19T03:18:51;16.30;99.90
31387;DHT22;69978;50.096;8.448;2023-09-19T03:21:17;16.20;99.90
31387;DHT22;69978;50.096;8.448;2023-09-19T03:23:43;16.20;99.90
31387;DHT22;69978;50.096;8.448;2023-09-19T03:26:11;16.20;99.90
31387;DHT22;69978;50.096;8.448;2023-09-19T03:28:38;16.10;99.90
31387;DHT22;69978;50.096;8.448;2023-09-19T03:31:07;16.10;99.90
31387;DHT22;69978;50.096;8.448;2023-09-19T03:33:33;16.00;99.90
31387;DHT22;69978;50.096;8.448;2023-09-19T03:36:00;16.00;99.90
31387;DHT22;69978;50.096;8.448;2023-09-19T03:38:27;16.00;99.90
31387;DHT22;69978;50.096;8.448;2023-09-19T03:40:54;16.00;99.90
31387;DHT22;69978;50.096;8.448;2023-09-19T03:43:19;15.90;99.90
31387;DHT22;69978;50.096;8.448;2023-09-19T03:45:45;16.00;99.90
31387;DHT22;69978;50.096;8.448;2023-09-19T03:48:12;16.00;99.90
31387;DHT22;69978;50.096;8.448;2023-09-19T03:50:38;15.90;99.90
31387;DHT22;69978;50.096;8.448;2023-09-19T03:53:04;16.00;99.90
31387;DHT22;69978;50.096;8.448;2023-09-19T03:55:30;16.00;99.90
31387;DHT22;69978;50.096;8.448;2023-09-19T03:57:56;16.10;99.90
31387;DHT22;69978;50.096;8.448;2023-09-19T04:00:22;16.00;99.90
31387;DHT22;69978;50.096;8.448;2023-09-19T04:02:51;16.00;99.90
31387;DHT22;69978;50.096;8.448;2023-09-19T04:05:16;16.10;99.90
31387;DHT22;69978;50.096;8.448;2023-09-19T04:07:42;16.20;99.90
31387;DHT22;69978;50.096;8.448;2023-09-19T04:10:08;16.10;99.90
31387;DHT22;69978;50.096;8.448;2023-09-19T04:12:35;16.10;99.90
31387;DHT22;69978;50.096;8.448;2023-09-19T04:15:01;16.10;99.90
31387;DHT22;69978;50.096;8.448;2023-09-19T04:17:26;16.10;99.90
31387;DHT22;69978;50.096;8.448;2023-09-19T04:19:52;16.20;99.90
31387;DHT22;69978;50.096;8.448;2023-09-19T04:22:18;16.20;99.90
31387;DHT22;69978;50.096;8.448;2023-09-19T04:24:44;16.30;99.90
31387;DHT22;69978;50.096;8.448;2023-09-19T04:27:09;16.20;99.90
31387;DHT22;69978;50.096;8.448;2023-09-19T04:29:35;16.10;99.90
31387;DHT22;69978;50.096;8.448;2023-09-19T04:32:01;16.00;99.90
31387;DHT22;69978;50.096;8.448;2023-09-19T04:34:29;16.00;99.90
31387;DHT22;69978;50.096;8.448;2023-09-19T04:36:55;16.00;99.90
31387;DHT22;69978;50.096;8.448;2023-09-19T04:39:23;15.90;99.90
31387;DHT22;69978;50.096;8.448;2023-09-19T04:41:51;15.90;99.90
31387;DHT22;69978;50.096;8.448;2023-09-19T04:44:18;15.90;99.90
31387;DHT22;69978;50.096;8.448;2023-09-19T04:46:44;15.80;99.90
31387;DHT22;69978;50.096;8.448;2023-09-19T04:49:09;15.80;99.90
31387;DHT22;69978;50.096;8.448;2023-09-19T04:51:35;15.70;99.90
31387;DHT22;69978;50.096;8.448;2023-09-19T04:54:01;15.70;99.90
31387;DHT22;69978;50.096;8.448;2023-09-19T04:56:28;15.70;99.90
31387;DHT22;69978;50.096;8.448;2023-09-19T04:59:00;15.70;99.90
31387;DHT22;69978;50.096;8.448;2023-09-19T05:01:26;15.70;99.90
31387;DHT22;69978;50.096;8.448;2023-09-19T05:03:54;15.60;99.90
31387;DHT22;69978;50.096;8.448;2023-09-19T05:06:20;15.60;99.90
31387;DHT22;69978;50.096;8.448;2023-09-19T05:08:50;15.60;99.90
31387;DHT22;69978;50.096;8.448;2023-09-19T05:11:19;15.70;99.90
31387;DHT22;69978;50.096;8.448;2023-09-19T05:13:45;15.70;99.90
31387;DHT22;69978;50.096;8.448;2023-09-19T05:16:10;15.60;99.90
31387;DHT22;69978;50.096;8.448;2023-09-19T05:18:36;15.60;99.90
31387;DHT22;69978;50.096;8.448;2023-09-19T05:21:02;15.60;99.90
31387;DHT22;69978;50.096;8.448;2023-09-19T05:23:28;15.50;99.90
31387;DHT22;69978;50.096;8.448;2023-09-19T05:25:54;15.50;99.90
31387;DHT22;69978;50.096;8.448;2023-09-19T05:28:22;15.50;99.90
31387;DHT22;69978;50.096;8.448;2023-09-19T05:30:49;15.40;99.90
31387;DHT22;69978;50.096;8.448;2023-09-19T05:33:15;15.50;99.90
31387;DHT22;69978;50.096;8.448;2023-09-19T05:35:41;15.50;99.90
31387;DHT22;69978;50.096;8.448;2023-09-19T05:38:07;15.50;99.90
31387;DHT22;69978;50.096;8.448;2023-09-19T05:40:38;15.60;99.90
31387;DHT22;69978;50.096;8.448;2023-09-19T05:43:06;15.60;99.90
31387;DHT22;69978;50.096;8.448;2023-09-19T05:45:31;15.60;99.90
31387;DHT22;69978;50.096;8.448;2023-09-19T05:48:10;15.60;99.90
31387;DHT22;69978;50.096;8.448;2023-09-19T05:50:37;15.60;99.90
31387;DHT22;69978;50.096;8.448;2023-09-19T05:53:04;15.50;99.90
31387;DHT22;69978;50.096;8.448;2023-09-19T05:55:30;15.60;99.90
31387;DHT22;69978;50.096;8.448;2023-09-19T05:57:56;15.60;99.90
31387;DHT22;69978;50.096;8.448;2023-09-19T06:00:22;15.70;99.90
31387;DHT22;69978;50.096;8.448;2023-09-19T06:02:52;15.70;99.90
31387;DHT22;69978;50.096;8.448;2023-09-19T06:05:18;15.70;99.90
31387;DHT22;69978;50.096;8.448;2023-09-19T06:07:44;15.60;99.90
31387;DHT22;69978;50.096;8.448;2023-09-19T06:10:10;15.60;99.90
31387;DHT22;69978;50.096;8.448;2023-09-19T06:12:39;15.70;99.90
31387;DHT22;69978;50.096;8.448;2023-09-19T06:15:05;15.70;99.90
31387;DHT22;69978;50.096;8.448;2023-09-19T06:17:31;15.70;99.90
31387;DHT22;69978;50.096;8.448;2023-09-19T06:19:57;15.70;99.90
31387;DHT22;69978;50.096;8.448;2023-09-19T06:22:22;15.80;99.90
31387;DHT22;69978;50.096;8.448;2023-09-19T06:24:49;15.80;99.90
31387;DHT22;69978;50.096;8.448;2023-09-19T06:27:15;15.90;99.90
31387;DHT22;69978;50.096;8.448;2023-09-19T06:29:40;15.90;99.90
31387;DHT22;69978;50.096;8.448;2023-09-19T06:32:08;15.80;99.90
31387;DHT22;69978;50.096;8.448;2023-09-19T06:34:34;15.80;99.90
31387;DHT22;69978;50.096;8.448;2023-09-19T06:36:59;15.90;99.90
31387;DHT22;69978;50.096;8.448;2023-09-19T06:39:25;15.90;99.90
31387;DHT22;69978;50.096;8.448;2023-09-19T06:41:51;16.00;99.90
31387;DHT22;69978;50.096;8.448;2023-09-19T06:44:19;16.00;99.90
31387;DHT22;69978;50.096;8.448;2023-09-19T06:46:47;16.00;99.90
31387;DHT22;69978;50.096;8.448;2023-09-19T06:49:15;16.10;99.90
31387;DHT22;69978;50.096;8.448;2023-09-19T06:51:41;16.20;99.90
31387;DHT22;69978;50.096;8.448;2023-09-19T06:54:07;16.20;99.90
31387;DHT22;69978;50.096;8.448;2023-09-19T06:56:33;16.10;99.90
31387;DHT22;69978;50.096;8.448;2023-09-19T06:58:58;16.20;99.90
31387;DHT22;69978;50.096;8.448;2023-09-19T07:01:24;16.20;99.90
31387;DHT22;69978;50.096;8.448;2023-09-19T07:03:50;16.30;99.90
31387;DHT22;69978;50.096;8.448;2023-09-19T07:06:16;16.30;99.90
31387;DHT22;69978;50.096;8.448;2023-09-19T07:08:42;16.30;99.90
31387;DHT22;69978;50.096;8.448;2023-09-19T07:11:09;16.40;99.90
31387;DHT22;69978;50.096;8.448;2023-09-19T07:13:38;16.40;99.90
31387;DHT22;69978;50.096;8.448;2023-09-19T07:16:04;16.50;99.90
31387;DHT22;69978;50.096;8.448;2023-09-19T07:18:30;16.50;99.90
31387;DHT22;69978;50.096;8.448;2023-09-19T07:20:57;16.60;99.90
31387;DHT22;69978;50.096;8.448;2023-09-19T07:23:26;16.60;99.90
31387;DHT22;69978;50.096;8.448;2023-09-19T07:25:52;16.60;99.90
31387;DHT22;69978;50.096;8.448;2023-09-19T07:28:21;16.60;99.90
31387;DHT22;69978;50.096;8.448;2023-09-19T07:30:48;16.70;99.90
31387;DHT22;69978;50.096;8.448;2023-09-19T07:33:13;16.70;99.90
31387;DHT22;69978;50.096;8.448;2023-09-19T07:35:39;16.60;99.90
31387;DHT22;69978;50.096;8.448;2023-09-19T07:38:08;16.60;99.90
31387;DHT22;69978;50.096;8.448;2023-09-19T07:40:33;16.60;99.90
31387;DHT22;69978;50.096;8.448;2023-09-19T07:42:59;16.60;99.90
31387;DHT22;69978;50.096;8.448;2023-09-19T07:45:28;16.70;99.90
31387;DHT22;69978;50.096;8.448;2023-09-19T07:47:55;16.80;99.90
31387;DHT22;69978;50.096;8.448;2023-09-19T07:50:21;16.80;99.90
31387;DHT22;69978;50.096;8.448;2023-09-19T07:52:48;17.00;99.90
31387;DHT22;69978;50.096;8.448;2023-09-19T07:55:16;17.20;99.90
31387;DHT22;69978;50.096;8.448;2023-09-19T07:57:45;17.40;99.90
31387;DHT22;69978;50.096;8.448;2023-09-19T08:00:13;17.40;99.90
31387;DHT22;69978;50.096;8.448;2023-09-19T08:02:42;17.60;99.90
31387;DHT22;69978;50.096;8.448;2023-09-19T08:05:12;17.70;99.90
31387;DHT22;69978;50.096;8.448;2023-09-19T08:07:42;17.90;99.90
31387;DHT22;69978;50.096;8.448;2023-09-19T08:10:08;18.30;99.90
31387;DHT22;69978;50.096;8.448;2023-09-19T08:12:39;18.80;99.90
31387;DHT22;69978;50.096;8.448;2023-09-19T08:15:18;19.10;99.90
31387;DHT22;69978;50.096;8.448;2023-09-19T08:17:45;19.20;99.90
31387;DHT22;69978;50.096;8.448;2023-09-19T08:20:12;18.70;99.90
31387;DHT22;69978;50.096;8.448;2023-09-19T08:22:50;18.40;99.90
31387;DHT22;69978;50.096;8.448;2023-09-19T08:25:22;18.70;99.90
31387;DHT22;69978;50.096;8.448;2023-09-19T08:27:49;18.50;99.90
31387;DHT22;69978;50.096;8.448;2023-09-19T08:30:20;18.70;99.90
31387;DHT22;69978;50.096;8.448;2023-09-19T08:32:58;18.80;99.90
31387;DHT22;69978;50.096;8.448;2023-09-19T08:35:24;19.00;99.90
31387;DHT22;69978;50.096;8.448;2023-09-19T08:37:50;19.80;99.90
31387;DHT22;69978;50.096;8.448;2023-09-19T08:40:16;20.30;99.90
31387;DHT22;69978;50.096;8.448;2023-09-19T08:42:53;20.20;99.90
31387;DHT22;69978;50.096;8.448;2023-09-19T08:45:24;20.10;99.90
31387;DHT22;69978;50.096;8.448;2023-09-19T08:50:55;19.60;99.90
31387;DHT22;69978;50.096;8.448;2023-09-19T08:55:55;19.40;99.90
31387;DHT22;69978;50.096;8.448;2023-09-19T08:58:31;19.30;99.90
31387;DHT22;69978;50.096;8.448;2023-09-19T09:00:58;19.30;99.90
31387;DHT22;69978;50.096;8.448;2023-09-19T09:03:26;19.40;99.90
31387;DHT22;69978;50.096;8.448;2023-09-19T09:05:51;19.40;99.90
31387;DHT22;69978;50.096;8.448;2023-09-19T09:08:19;19.50;99.90
31387;DHT22;69978;50.096;8.448;2023-09-19T09:10:47;19.10;99.90
31387;DHT22;69978;50.096;8.448;2023-09-19T09:13:14;19.10;99.90
31387;DHT22;69978;50.096;8.448;2023-09-19T09:15:41;19.20;99.90
31387;DHT22;69978;50.096;8.448;2023-09-19T09:18:10;19.00;99.90
31387;DHT22;69978;50.096;8.448;2023-09-19T09:20:36;19.00;99.90
31387;DHT22;69978;50.096;8.448;2023-09-19T09:23:01;19.10;99.90
31387;DHT22;69978;50.096;8.448;2023-09-19T09:26:07;19.20;99.90
31387;DHT22;69978;50.096;8.448;2023-09-19T09:28:35;19.10;99.90
31387;DHT22;69978;50.096;8.448;2023-09-19T09:31:02;19.20;99.90
31387;DHT22;69978;50.096;8.448;2023-09-19T09:33:35;19.00;99.90
31387;DHT22;69978;50.096;8.448;2023-09-19T09:36:02;19.10;99.90
31387;DHT22;69978;50.096;8.448;2023-09-19T09:38:46;19.40;99.90
31387;DHT22;69978;50.096;8.448;2023-09-19T09:41:15;19.70;99.90
31387;DHT22;69978;50.096;8.448;2023-09-19T09:43:52;20.10;99.90
31387;DHT22;69978;50.096;8.448;2023-09-19T09:46:20;20.40;99.90
31387;DHT22;69978;50.096;8.448;2023-09-19T09:48:46;20.60;99.90
31387;DHT22;69978;50.096;8.448;2023-09-19T09:51:32;20.70;99.90
31387;DHT22;69978;50.096;8.448;2023-09-19T09:54:16;20.70;99.90
31387;DHT22;69978;50.096;8.448;2023-09-19T09:56:59;20.90;99.90
31387;DHT22;69978;50.096;8.448;2023-09-19T09:59:47;21.00;99.90
31387;DHT22;69978;50.096;8.448;2023-09-19T10:02:16;21.10;99.90
31387;DHT22;69978;50.096;8.448;2023-09-19T10:04:52;21.00;99.90
31387;DHT22;69978;50.096;8.448;2023-09-19T10:07:24;21.10;99.90
31387;DHT22;69978;50.096;8.448;2023-09-19T10:09:50;21.20;99.90
31387;DHT22;69978;50.096;8.448;2023-09-19T10:12:19;21.10;99.90
31387;DHT22;69978;50.096;8.448;2023-09-19T10:14:46;21.20;99.90
31387;DHT22;69978;50.096;8.448;2023-09-19T10:17:14;21.10;99.90
31387;DHT22;69978;50.096;8.448;2023-09-19T10:19:55;21.50;99.90
31387;DHT22;69978;50.096;8.448;2023-09-19T10:22:26;22.00;99.90
31387;DHT22;69978;50.096;8.448;2023-09-19T10:24:57;21.80;99.90
31387;DHT22;69978;50.096;8.448;2023-09-19T10:27:26;21.20;99.90
31387;DHT22;69978;50.096;8.448;2023-09-19T10:29:52;21.20;99.90
31387;DHT22;69978;50.096;8.448;2023-09-19T10:32:23;21.60;99.90
31387;DHT22;69978;50.096;8.448;2023-09-19T10:34:49;21.80;99.90
31387;DHT22;69978;50.096;8.448;2023-09-19T10:37:20;21.80;99.90
31387;DHT22;69978;50.096;8.448;2023-09-19T10:39:48;21.70;99.90
31387;DHT22;69978;50.096;8.448;2023-09-19T10:42:19;21.90;99.90
31387;DHT22;69978;50.096;8.448;2023-09-19T10:44:46;21.90;99.90
31387;DHT22;69978;50.096;8.448;2023-09-19T10:47:20;22.10;99.90
31387;DHT22;69978;50.096;8.448;2023-09-19T10:49:49;22.20;99.90
31387;DHT22;69978;50.096;8.448;2023-09-19T10:52:18;22.30;99.90
31387;DHT22;69978;50.096;8.448;2023-09-19T10:54:50;22.60;99.90
31387;DHT22;69978;50.096;8.448;2023-09-19T10:57:21;22.80;99.90
31387;DHT22;69978;50.096;8.448;2023-09-19T11:00:06;22.80;99.90
31387;DHT22;69978;50.096;8.448;2023-09-19T11:03:24;22.70;99.90
31387;DHT22;69978;50.096;8.448;2023-09-19T11:06:03;22.80;99.90
31387;DHT22;69978;50.096;8.448;2023-09-19T11:08:30;22.90;99.90
31387;DHT22;69978;50.096;8.448;2023-09-19T11:10:57;23.00;99.90
31387;DHT22;69978;50.096;8.448;2023-09-19T11:13:31;23.00;99.90
31387;DHT22;69978;50.096;8.448;2023-09-19T11:26:48;23.50;99.90
31387;DHT22;69978;50.096;8.448;2023-09-19T11:31:52;23.70;99.90
31387;DHT22;69978;50.096;8.448;2023-09-19T11:37:02;24.10;99.90
31387;DHT22;69978;50.096;8.448;2023-09-19T11:39:31;23.80;99.90
31387;DHT22;69978;50.096;8.448;2023-09-19T11:41:58;23.80;99.90
31387;DHT22;69978;50.096;8.448;2023-09-19T11:46:55;24.00;99.90
31387;DHT22;69978;50.096;8.448;2023-09-19T11:49:31;24.10;99.90
31387;DHT22;69978;50.096;8.448;2023-09-19T11:52:02;24.00;99.90
31387;DHT22;69978;50.096;8.448;2023-09-19T11:54:32;24.00;99.90
31387;DHT22;69978;50.096;8.448;2023-09-19T11:56:58;24.10;99.90
31387;DHT22;69978;50.096;8.448;2023-09-19T11:59:26;24.20;99.90
31387;DHT22;69978;50.096;8.448;2023-09-19T12:01:55;24.40;99.90
31387;DHT22;69978;50.096;8.448;2023-09-19T12:04:36;24.40;99.90
31387;DHT22;69978;50.096;8.448;2023-09-19T12:07:13;24.50;99.90
31387;DHT22;69978;50.096;8.448;2023-09-19T12:10:03;24.50;99.90
31387;DHT22;69978;50.096;8.448;2023-09-19T12:12:30;24.50;99.90
31387;DHT22;69978;50.096;8.448;2023-09-19T12:14:58;24.60;99.90
31387;DHT22;69978;50.096;8.448;2023-09-19T12:17:38;24.70;99.90
31387;DHT22;69978;50.096;8.448;2023-09-19T12:20:05;24.70;99.90
31387;DHT22;69978;50.096;8.448;2023-09-19T12:22:45;24.80;99.90
31387;DHT22;69978;50.096;8.448;2023-09-19T12:25:12;24.70;99.90
31387;DHT22;69978;50.096;8.448;2023-09-19T12:27:45;24.80;99.90
31387;DHT22;69978;50.096;8.448;2023-09-19T12:30:13;24.70;99.90
31387;DHT22;69978;50.096;8.448;2023-09-19T12:32:46;24.60;99.90
31387;DHT22;69978;50.096;8.448;2023-09-19T12:35:27;24.50;99.90
31387;DHT22;69978;50.096;8.448;2023-09-19T12:37:54;24.30;99.90
31387;DHT22;69978;50.096;8.448;2023-09-19T12:40:21;24.20;99.90
31387;DHT22;69978;50.096;8.448;2023-09-19T12:42:52;24.20;99.90
31387;DHT22;69978;50.096;8.448;2023-09-19T12:45:19;24.10;99.90
31387;DHT22;69978;50.096;8.448;2023-09-19T12:48:32;24.10;99.90
31387;DHT22;69978;50.096;8.448;2023-09-19T12:51:04;24.00;99.90
31387;DHT22;69978;50.096;8.448;2023-09-19T12:53:39;24.00;99.90
31387;DHT22;69978;50.096;8.448;2023-09-19T12:56:16;23.90;99.90
31387;DHT22;69978;50.096;8.448;2023-09-19T12:58:56;23.70;99.90
31387;DHT22;69978;50.096;8.448;2023-09-19T13:01:24;23.60;99.90
31387;DHT22;69978;50.096;8.448;2023-09-19T13:04:15;23.60;99.90
31387;DHT22;69978;50.096;8.448;2023-09-19T13:06:50;23.50;99.90
31387;DHT22;69978;50.096;8.448;2023-09-19T13:09:21;23.40;99.90
31387;DHT22;69978;50.096;8.448;2023-09-19T13:11:47;23.40;99.90
31387;DHT22;69978;50.096;8.448;2023-09-19T13:17:06;23.20;99.90
31387;DHT22;69978;50.096;8.448;2023-09-19T13:19:45;23.30;99.90
31387;DHT22;69978;50.096;8.448;2023-09-19T13:22:42;23.30;99.90
31387;DHT22;69978;50.096;8.448;2023-09-19T13:25:14;23.20;99.90
31387;DHT22;69978;50.096;8.448;2023-09-19T13:27:44;23.00;99.90
31387;DHT22;69978;50.096;8.448;2023-09-19T13:30:14;22.80;99.90
31387;DHT22;69978;50.096;8.448;2023-09-19T13:32:40;22.70;99.90
31387;DHT22;69978;50.096;8.448;2023-09-19T13:35:08;22.70;99.90
31387;DHT22;69978;50.096;8.448;2023-09-19T13:37:39;22.80;99.90
31387;DHT22;69978;50.096;8.448;2023-09-19T13:40:09;22.80;99.90
31387;DHT22;69978;50.096;8.448;2023-09-19T13:42:36;22.70;99.90
31387;DHT22;69978;50.096;8.448;2023-09-19T13:45:05;22.60;99.90
31387;DHT22;69978;50.096;8.448;2023-09-19T13:47:32;22.60;99.90
31387;DHT22;69978;50.096;8.448;2023-09-19T13:49:59;22.70;99.90
31387;DHT22;69978;50.096;8.448;2023-09-19T13:52:24;22.70;99.90
31387;DHT22;69978;50.096;8.448;2023-09-19T13:54:53;22.70;99.90
31387;DHT22;69978;50.096;8.448;2023-09-19T13:57:19;22.80;99.90
31387;DHT22;69978;50.096;8.448;2023-09-19T13:59:44;22.90;99.90
31387;DHT22;69978;50.096;8.448;2023-09-19T14:02:10;22.70;99.90
31387;DHT22;69978;50.096;8.448;2023-09-19T14:04:36;22.70;99.90
31387;DHT22;69978;50.096;8.448;2023-09-19T14:07:02;22.70;99.90
31387;DHT22;69978;50.096;8.448;2023-09-19T14:09:29;22.80;99.90
31387;DHT22;69978;50.096;8.448;2023-09-19T14:11:55;22.80;99.90
31387;DHT22;69978;50.096;8.448;2023-09-19T14:14:22;22.70;99.90
31387;DHT22;69978;50.096;8.448;2023-09-19T14:16:48;22.70;99.90
31387;DHT22;69978;50.096;8.448;2023-09-19T14:19:14;22.70;99.90
31387;DHT22;69978;50.096;8.448;2023-09-19T14:21:42;22.60;99.90
31387;DHT22;69978;50.096;8.448;2023-09-19T14:24:08;22.50;99.90
31387;DHT22;69978;50.096;8.448;2023-09-19T14:26:38;22.40;99.90
31387;DHT22;69978;50.096;8.448;2023-09-19T14:29:04;22.40;99.90
31387;DHT22;69978;50.096;8.448;2023-09-19T14:31:33;22.30;99.90
31387;DHT22;69978;50.096;8.448;2023-09-19T14:33:59;22.30;99.90
31387;DHT22;69978;50.096;8.448;2023-09-19T14:36:25;22.30;99.90
31387;DHT22;69978;50.096;8.448;2023-09-19T14:38:55;22.20;99.90
31387;DHT22;69978;50.096;8.448;2023-09-19T14:41:22;22.10;99.90
31387;DHT22;69978;50.096;8.448;2023-09-19T14:43:49;22.10;99.90
31387;DHT22;69978;50.096;8.448;2023-09-19T14:46:15;22.20;99.90
31387;DHT22;69978;50.096;8.448;2023-09-19T14:48:41;22.00;99.90
31387;DHT22;69978;50.096;8.448;2023-09-19T14:51:08;21.80;99.90
31387;DHT22;69978;50.096;8.448;2023-09-19T14:53:37;21.70;99.90
31387;DHT22;69978;50.096;8.448;2023-09-19T14:56:04;21.60;99.90
31387;DHT22;69978;50.096;8.448;2023-09-19T14:58:31;21.70;99.90
31387;DHT22;69978;50.096;8.448;2023-09-19T15:01:04;21.70;99.90
31387;DHT22;69978;50.096;8.448;2023-09-19T15:03:32;21.70;99.90
31387;DHT22;69978;50.096;8.448;2023-09-19T15:06:05;21.70;99.90
31387;DHT22;69978;50.096;8.448;2023-09-19T15:08:35;21.70;99.90
31387;DHT22;69978;50.096;8.448;2023-09-19T15:11:04;21.70;99.90
31387;DHT22;69978;50.096;8.448;2023-09-19T15:13:31;21.60;99.90
31387;DHT22;69978;50.096;8.448;2023-09-19T15:16:04;21.70;99.90
31387;DHT22;69978;50.096;8.448;2023-09-19T15:18:34;21.60;99.90
31387;DHT22;69978;50.096;8.448;2023-09-19T15:21:03;21.60;99.90
31387;DHT22;69978;50.096;8.448;2023-09-19T15:23:30;21.60;99.90
31387;DHT22;69978;50.096;8.448;2023-09-19T15:25:56;21.60;99.90
31387;DHT22;69978;50.096;8.448;2023-09-19T15:28:22;21.60;99.90
31387;DHT22;69978;50.096;8.448;2023-09-19T15:31:01;21.70;99.90
31387;DHT22;69978;50.096;8.448;2023-09-19T15:33:27;21.70;99.90
31387;DHT22;69978;50.096;8.448;2023-09-19T15:36:14;21.60;99.90
31387;DHT22;69978;50.096;8.448;2023-09-19T15:38:59;21.70;99.90
31387;DHT22;69978;50.096;8.448;2023-09-19T15:41:33;21.70;99.90
31387;DHT22;69978;50.096;8.448;2023-09-19T15:44:03;21.70;99.90
31387;DHT22;69978;50.096;8.448;2023-09-19T15:46:36;21.70;99.90
31387;DHT22;69978;50.096;8.448;2023-09-19T15:49:03;21.60;99.90
31387;DHT22;69978;50.096;8.448;2023-09-19T15:51:29;21.60;99.90
31387;DHT22;69978;50.096;8.448;2023-09-19T15:53:56;21.50;99.90
31387;DHT22;69978;50.096;8.448;2023-09-19T15:56:22;21.50;99.90
31387;DHT22;69978;50.096;8.448;2023-09-19T15:58:51;21.50;99.90
31387;DHT22;69978;50.096;8.448;2023-09-19T16:01:18;21.50;99.90
31387;DHT22;69978;50.096;8.448;2023-09-19T16:03:46;21.40;99.90
31387;DHT22;69978;50.096;8.448;2023-09-19T16:06:17;21.40;99.90
31387;DHT22;69978;50.096;8.448;2023-09-19T16:08:46;21.30;99.90
31387;DHT22;69978;50.096;8.448;2023-09-19T16:11:12;21.30;99.90
31387;DHT22;69978;50.096;8.448;2023-09-19T16:13:39;21.30;99.90
31387;DHT22;69978;50.096;8.448;2023-09-19T16:16:07;21.20;99.90
31387;DHT22;69978;50.096;8.448;2023-09-19T16:18:33;21.20;99.90
31387;DHT22;69978;50.096;8.448;2023-09-19T16:21:06;21.20;99.90
31387;DHT22;69978;50.096;8.448;2023-09-19T16:23:33;21.20;99.90
31387;DHT22;69978;50.096;8.448;2023-09-19T16:26:04;21.10;99.90
31387;DHT22;69978;50.096;8.448;2023-09-19T16:28:31;21.10;99.90
31387;DHT22;69978;50.096;8.448;2023-09-19T16:31:00;21.10;99.90